Time;durP1;ratioP1;P1;durP2;ratioP2;P2;SDS_P1;SDS_P2;PMS_P1;PMS_P2;Temp;Humidity;BMP_temperature;BMP_pressure;BME280_temperature;BME280_humidity;BME280_pressure;Samples;Min_cycle;Max_cycle;Signal;HPM_P1;HPM_P2
2022/04/03 00:01:33;;;;;;;;;;;;;;;;;;2207659;67;1263;-69
2022/04/03 00:04:06;;;;;;;;;;;;;;;;;;2207900;59;1066;-69
2022/04/03 00:06:42;;;;;;;;;;;;;;;;;;2206674;59;1251;-69
2022/04/03 00:09:15;;;;;;;;;;;;;;;;;;2207892;59;1130;-69
2022/04/03 00:11:48;;;;;;;;;;;;;;;;;;2206476;59;1971;-69
2022/04/03 00:14:22;;;;;;;;;;;;;;;;;;2207428;59;1306;-69
2022/04/03 00:16:55;;;;;;;;;;;;;;;;;;2205649;59;1669;-69
2022/04/03 00:19:28;;;;;;;;;;;;;;;;;;2207577;59;2333;-69
2022/04/03 00:22:05;;;;;;;;;;;;;;;;;;2208139;60;1144;-68
2022/04/03 00:24:38;;;;;;;;;;;;;;;;;;2208213;59;1302;-69
2022/04/03 00:27:11;;;;;;;;;;;;;;;;;;2207611;67;1189;-69
2022/04/03 00:29:44;;;;;;;;;;;;;;;;;;2207177;67;1279;-69
2022/04/03 00:32:17;;;;;;;;;;;;;;;;;;2206915;67;1942;-69
2022/04/03 00:34:51;;;;;;;;;;;;;;;;;;2207478;59;1668;-69
2022/04/03 00:37:27;;;;;;;;;;;;;;;;;;2201932;54;3515;-70
2022/04/03 00:40:00;;;;;;;;;;;;;;;;;;2195517;59;2344;-70
2022/04/03 00:42:35;;;;;;;;;;;;;;;;;;2196386;67;1243;-70
2022/04/03 00:45:10;;;;;;;;;;;;;;;;;;2198200;59;1242;-70
2022/04/03 00:47:45;;;;;;;;;;;;;;;;;;2196257;59;1262;-70
2022/04/03 00:50:23;;;;;;;;;;;;;;;;;;2195258;67;1298;-70
2022/04/03 00:52:59;;;;;;;;;;;;;;;;;;2197968;59;1936;-70
2022/04/03 00:55:33;;;;;;;;;;;;;;;;;;2195429;67;1196;-70
2022/04/03 00:58:06;;;;;;;;;;;;;;;;;;2194625;59;2010;-70
2022/04/03 01:00:40;;;;;;;;;;;;;;;;;;2194404;59;1939;-70
2022/04/03 01:03:16;;;;;;;;;;;;;;;;;;2195495;67;1191;-70
2022/04/03 01:05:50;;;;;;;;;;;;;;;;;;2195463;67;1157;-70
2022/04/03 01:08:27;;;;;;;;;;;;;;;;;;2195563;59;1274;-70
2022/04/03 01:11:00;;;;;;;;;;;;;;;;;;2199964;59;1923;-70
2022/04/03 01:13:33;;;;;;;;;;;;;;;;;;2198243;59;1335;-70
2022/04/03 01:16:07;;;;;;;;;;;;;;;;;;2195070;59;1719;-70
2022/04/03 01:18:40;;;;;;;;;;;;;;;;;;2195776;59;1970;-70
2022/04/03 01:21:17;;;;;;;;;;;;;;;;;;2196233;67;1088;-70
2022/04/03 01:23:54;;;;;;;;;;;;;;;;;;2199895;59;1221;-70
2022/04/03 01:26:31;;;;;;;;;;;;;;;;;;2199216;67;1276;-70
2022/04/03 01:29:04;;;;;;;;;;;;;;;;;;2196049;67;1008;-70
2022/04/03 01:31:38;;;;;;;;;;;;;;;;;;2198010;59;1983;-70
2022/04/03 01:34:11;;;;;;;;;;;;;;;;;;2197861;67;1120;-70
2022/04/03 01:36:45;;;;;;;;;;;;;;;;;;2197045;59;1777;-70
2022/04/03 01:39:18;;;;;;;;;;;;;;;;;;2193843;59;2913;-70
2022/04/03 01:41:57;;;;;;;;;;;;;;;;;;2203273;67;1300;-70
2022/04/03 01:44:31;;;;;;;;;;;;;;;;;;2195119;67;1373;-70
2022/04/03 01:47:05;;;;;;;;;;;;;;;;;;2195730;59;1262;-70
2022/04/03 01:49:38;;;;;;;;;;;;;;;;;;2199782;59;1608;-70
2022/04/03 01:52:11;;;;;;;;;;;;;;;;;;2196531;59;1928;-71
2022/04/03 01:54:45;;;;;;;;;;;;;;;;;;2195080;59;1657;-70
2022/04/03 01:57:21;;;;;;;;;;;;;;;;;;2196450;59;1934;-70
2022/04/03 01:59:54;;;;;;;;;;;;;;;;;;2200217;67;1587;-70
2022/04/03 02:02:37;;;;;;;;;;;;;;;;;;2196938;59;1432;-70
2022/04/03 02:05:11;;;;;;;;;;;;;;;;;;2198225;59;1668;-70
2022/04/03 02:07:45;;;;;;;;;;;;;;;;;;2194396;59;1569;-70
2022/04/03 02:10:18;;;;;;;;;;;;;;;;;;2198186;67;1202;-70
2022/04/03 02:12:54;;;;;;;;;;;;;;;;;;2196496;60;2019;-70
2022/04/03 02:15:28;;;;;;;;;;;;;;;;;;2197629;67;1251;-70
2022/04/03 02:18:08;;;;;;;;;;;;;;;;;;2195510;59;1851;-70
2022/04/03 02:20:41;;;;;;;;;;;;;;;;;;2195220;67;1178;-70
2022/04/03 02:23:16;;;;;;;;;;;;;;;;;;2195651;67;1219;-70
2022/04/03 02:25:50;;;;;;;;;;;;;;;;;;2195080;59;1401;-70
2022/04/03 02:28:26;;;;;;;;;;;;;;;;;;2196765;67;1158;-70
2022/04/03 02:31:00;;;;;;;;;;;;;;;;;;2199895;67;1113;-70
2022/04/03 02:33:33;;;;;;;;;;;;;;;;;;2198920;67;1989;-70
2022/04/03 02:36:07;;;;;;;;;;;;;;;;;;2195610;59;2061;-70
2022/04/03 02:38:40;;;;;;;;;;;;;;;;;;2194046;67;2618;-70
2022/04/03 02:41:14;;;;;;;;;;;;;;;;;;2195342;59;2230;-70
2022/04/03 02:43:51;;;;;;;;;;;;;;;;;;2196125;67;1268;-70
2022/04/03 02:46:24;;;;;;;;;;;;;;;;;;2195590;59;1533;-70
2022/04/03 02:48:57;;;;;;;;;;;;;;;;;;2195306;59;1224;-70
2022/04/03 02:51:31;;;;;;;;;;;;;;;;;;2197036;67;1924;-70
2022/04/03 02:54:04;;;;;;;;;;;;;;;;;;2197476;67;1184;-71
2022/04/03 02:56:37;;;;;;;;;;;;;;;;;;2195432;59;1721;-70
2022/04/03 02:59:14;;;;;;;;;;;;;;;;;;2197025;67;1228;-70
2022/04/03 03:01:47;;;;;;;;;;;;;;;;;;2194652;67;1106;-70
2022/04/03 03:04:21;;;;;;;;;;;;;;;;;;2195652;67;1160;-70
2022/04/03 03:06:54;;;;;;;;;;;;;;;;;;2195003;67;1229;-70
2022/04/03 03:09:27;;;;;;;;;;;;;;;;;;2194965;59;1270;-70
2022/04/03 03:19:43;;;;;;;;;;;;;;;;;;2192695;59;2718;-70
2022/04/03 03:25:45;;;;;;;;;;;;;;;;;;2199606;59;1195;-70
2022/04/03 03:31:15;;;;;;;;;;;;;;;;;;2196209;67;1228;-70
2022/04/03 03:33:50;;;;;;;;;;;;;;;;;;2195364;67;1944;-70
2022/04/03 03:40:06;;;;;;;;;;;;;;;;;;2199754;59;2448;-70
2022/04/03 03:42:44;;;;;;;;;;;;;;;;;;2195356;59;2637;-69
2022/04/03 03:48:55;;;;;;;;;;;;;;;;;;2196973;59;1204;-70
2022/04/03 03:51:30;;;;;;;;;;;;;;;;;;2198805;67;1215;-70
2022/04/03 03:58:05;;;;;;;;;;;;;;;;;;2196211;59;1852;-70
2022/04/03 04:03:59;;;;;;;;;;;;;;;;;;2193373;67;1305;-70
2022/04/03 04:22:36;;;;;;;;;;;;;;;;;;2198075;59;1560;-70
2022/04/03 04:25:31;;;;;;;;;;;;;;;;;;2194398;59;1870;-70
2022/04/03 04:34:17;;;;;;;;;;;;;;;;;;2192268;67;1952;-70
2022/04/03 04:40:32;;;;;;;;;;;;;;;;;;2196768;59;2736;-70
2022/04/03 04:43:37;;;;;;;;;;;;;;;;;;;;;
2022/04/03 04:53:00;;;;;;;;;;;;;;;;;;2187320;67;2691;-70
2022/04/03 04:55:33;;;;;;;;;;;;;;;;;;2189080;60;1110;-70
2022/04/03 04:58:07;;;;;;;;;;;;;;;;;;2191380;59;2059;-70
2022/04/03 05:00:40;;;;;;;;;;;;;;;;;;2196631;67;1132;-70
2022/04/03 05:03:13;;;;;;;;;;;;;;;;;;2197396;67;1114;-70
2022/04/03 05:05:49;;;;;;;;;;;;;;;;;;2195638;67;1222;-69
2022/04/03 05:08:23;;;;;;;;;;;;;;;;;;2196213;67;1228;-70
2022/04/03 05:10:56;;;;;;;;;;;;;;;;;;2195900;67;1277;-70
2022/04/03 05:13:30;;;;;;;;;;;;;;;;;;2194387;59;1987;-70
2022/04/03 05:16:03;;;;;;;;;;;;;;;;;;2194977;59;1776;-69
2022/04/03 05:18:37;;;;;;;;;;;;;;;;;;2194452;59;2195;-70
2022/04/03 05:21:13;;;;;;;;;;;;;;;;;;2194192;59;1959;-70
2022/04/03 05:23:53;;;;;;;;;;;;;;;;;;2197611;59;2497;-70
2022/04/03 05:26:26;;;;;;;;;;;;;;;;;;2195981;59;1307;-70
2022/04/03 05:28:59;;;;;;;;;;;;;;;;;;2194217;59;1684;-70
2022/04/03 05:31:33;;;;;;;;;;;;;;;;;;2196332;59;1242;-71
2022/04/03 05:34:06;;;;;;;;;;;;;;;;;;2194649;59;1949;-70
2022/04/03 05:36:42;;;;;;;;;;;;;;;;;;2194775;59;1567;-70
2022/04/03 05:39:18;;;;;;;;;;;;;;;;;;2195621;59;1570;-70
2022/04/03 05:41:55;;;;;;;;;;;;;;;;;;2194266;59;2209;-70
2022/04/03 05:44:28;;;;;;;;;;;;;;;;;;2193615;59;2718;-69
2022/04/03 05:47:08;;;;;;;;;;;;;;;;;;2194643;59;1265;-70
2022/04/03 05:49:41;;;;;;;;;;;;;;;;;;2194841;67;1310;-69
2022/04/03 05:52:17;;;;;;;;;;;;;;;;;;2194283;59;1930;-69
2022/04/03 05:54:50;;;;;;;;;;;;;;;;;;2194989;59;1260;-69
2022/04/03 05:57:24;;;;;;;;;;;;;;;;;;2196161;59;1773;-70
2022/04/03 05:59:57;;;;;;;;;;;;;;;;;;2194518;67;1240;-69
2022/04/03 06:02:31;;;;;;;;;;;;;;;;;;2195339;67;1159;-70
2022/04/03 06:05:05;;;;;;;;;;;;;;;;;;2195129;67;1126;-69
2022/04/03 06:07:41;;;;;;;;;;;;;;;;;;2196026;59;1277;-70
2022/04/03 06:10:14;;;;;;;;;;;;;;;;;;2193669;67;1327;-70
2022/04/03 06:12:54;;;;;;;;;;;;;;;;;;2194152;59;1940;-70
2022/04/03 06:15:28;;;;;;;;;;;;;;;;;;2194326;59;1778;-70
2022/04/03 06:18:02;;;;;;;;;;;;;;;;;;2194717;59;2278;-70
2022/04/03 06:20:38;;;;;;;;;;;;;;;;;;2195185;67;1093;-70
2022/04/03 06:23:15;;;;;;;;;;;;;;;;;;2194754;59;1973;-69
2022/04/03 06:25:49;;;;;;;;;;;;;;;;;;2195174;59;1211;-70
2022/04/03 06:28:23;;;;;;;;;;;;;;;;;;2196433;67;1139;-70
2022/04/03 06:30:56;;;;;;;;;;;;;;;;;;2194450;59;1813;-70
2022/04/03 06:33:30;;;;;;;;;;;;;;;;;;2195571;67;1949;-70
2022/04/03 06:38:40;;;;;;;;;;;;;;;;;;2213711;59;2675;-73
2022/04/03 06:41:13;;;;;;;;;;;;;;;;;;2216134;58;1635;-73
2022/04/03 06:43:47;;;;;;;;;;;;;;;;;;2215809;58;2379;-73
2022/04/03 06:46:20;;;;;;;;;;;;;;;;;;2216599;58;1973;-73
2022/04/03 06:48:54;;;;;;;;;;;;;;;;;;2217635;58;1198;-73
2022/04/03 06:51:27;;;;;;;;;;;;;;;;;;2218663;66;1063;-73
2022/04/03 06:54:03;;;;;;;;;;;;;;;;;;2217612;58;1924;-73
2022/04/03 06:56:36;;;;;;;;;;;;;;;;;;2216688;58;1506;-73
2022/04/03 06:59:09;;;;;;;;;;;;;;;;;;2217599;66;1096;-73
2022/04/03 07:01:42;;;;;;;;;;;;;;;;;;2217792;58;1551;-73
2022/04/03 07:04:16;;;;;;;;;;;;;;;;;;2216637;58;1688;-73
2022/04/03 07:06:49;;;;;;;;;;;;;;;;;;2217902;59;1260;-73
2022/04/03 07:09:25;;;;;;;;;;;;;;;;;;2218686;58;1274;-73
2022/04/03 07:11:58;;;;;;;;;;;;;;;;;;2217357;58;2279;-73
2022/04/03 07:14:31;;;;;;;;;;;;;;;;;;2214664;58;1933;-74
2022/04/03 07:17:05;;;;;;;;;;;;;;;;;;2213845;58;1866;-73
2022/04/03 07:19:38;;;;;;;;;;;;;;;;;;2212660;59;1897;-74
2022/04/03 07:22:11;;;;;;;;;;;;;;;;;;2218978;59;1071;-73
2022/04/03 07:24:47;;;;;;;;;;;;;;;;;;2217011;59;1266;-73
2022/04/03 07:27:20;;;;;;;;;;;;;;;;;;2218420;58;1525;-73
2022/04/03 07:29:53;;;;;;;;;;;;;;;;;;2216827;59;1094;-73
2022/04/03 07:32:27;;;;;;;;;;;;;;;;;;2218164;58;1909;-73
2022/04/03 07:35:00;;;;;;;;;;;;;;;;;;2214360;66;1980;-73
2022/04/03 07:37:33;;;;;;;;;;;;;;;;;;2216444;58;1583;-73
2022/04/03 07:40:11;;;;;;;;;;;;;;;;;;2216632;66;1332;-73
2022/04/03 07:42:46;;;;;;;;;;;;;;;;;;2217198;66;1230;-73
2022/04/03 07:45:19;;;;;;;;;;;;;;;;;;2217420;59;2409;-73
2022/04/03 07:47:53;;;;;;;;;;;;;;;;;;2216710;58;2423;-73
2022/04/03 07:50:27;;;;;;;;;;;;;;;;;;2217429;59;1131;-73
2022/04/03 07:53:00;;;;;;;;;;;;;;;;;;2214975;58;1964;-73
2022/04/03 07:55:36;;;;;;;;;;;;;;;;;;2214730;58;1944;-73
2022/04/03 07:58:09;;;;;;;;;;;;;;;;;;2212626;58;1995;-73
2022/04/03 08:00:43;;;;;;;;;;;;;;;;;;2217341;59;1958;-74
2022/04/03 08:03:16;;;;;;;;;;;;;;;;;;2217511;59;1138;-73
2022/04/03 08:05:49;;;;;;;;;;;;;;;;;;2217996;59;1185;-73
2022/04/03 08:08:22;;;;;;;;;;;;;;;;;;2213673;59;2060;-73
2022/04/03 08:10:59;;;;;;;;;;;;;;;;;;2217154;66;1353;-74
2022/04/03 08:13:32;;;;;;;;;;;;;;;;;;2217334;66;1917;-73
2022/04/03 08:16:05;;;;;;;;;;;;;;;;;;2217215;58;1710;-73
2022/04/03 08:18:39;;;;;;;;;;;;;;;;;;2217301;58;2275;-74
2022/04/03 08:21:13;;;;;;;;;;;;;;;;;;2217878;58;2052;-74
2022/04/03 08:23:46;;;;;;;;;;;;;;;;;;2217093;59;1211;-73
2022/04/03 08:26:25;;;;;;;;;;;;;;;;;;2213225;59;1664;-74
2022/04/03 08:28:59;;;;;;;;;;;;;;;;;;2216875;59;1328;-73
2022/04/03 08:31:33;;;;;;;;;;;;;;;;;;2217333;58;2143;-74
2022/04/03 08:34:06;;;;;;;;;;;;;;;;;;2218012;66;1926;-75
2022/04/03 08:36:39;;;;;;;;;;;;;;;;;;2218027;58;2096;-73
2022/04/03 08:39:12;;;;;;;;;;;;;;;;;;2217373;58;1688;-74
2022/04/03 08:41:49;;;;;;;;;;;;;;;;;;2217791;66;1221;-74
2022/04/03 08:44:22;;;;;;;;;;;;;;;;;;2217444;59;2199;-74
2022/04/03 08:46:55;;;;;;;;;;;;;;;;;;2213704;59;2329;-74
2022/04/03 08:49:30;;;;;;;;;;;;;;;;;;2216122;58;1320;-74
2022/04/03 08:52:04;;;;;;;;;;;;;;;;;;2216738;66;1195;-74
2022/04/03 08:54:38;;;;;;;;;;;;;;;;;;2216355;58;1975;-74
2022/04/03 08:57:14;;;;;;;;;;;;;;;;;;2217507;58;1605;-73
2022/04/03 08:59:48;;;;;;;;;;;;;;;;;;2217346;66;1127;-73
2022/04/03 09:02:21;;;;;;;;;;;;;;;;;;2212957;66;1598;-74
2022/04/03 09:04:54;;;;;;;;;;;;;;;;;;2217671;59;1787;-74
2022/04/03 09:07:28;;;;;;;;;;;;;;;;;;2215949;58;1352;-74
2022/04/03 09:10:02;;;;;;;;;;;;;;;;;;2215849;66;1261;-74
2022/04/03 09:12:44;;;;;;;;;;;;;;;;;;2213889;66;1313;-74
2022/04/03 09:15:18;;;;;;;;;;;;;;;;;;2216157;66;1998;-74
2022/04/03 09:17:53;;;;;;;;;;;;;;;;;;2217343;58;2194;-74
2022/04/03 09:20:27;;;;;;;;;;;;;;;;;;2217664;58;2268;-73
2022/04/03 09:23:01;;;;;;;;;;;;;;;;;;2216606;66;1168;-74
2022/04/03 09:25:35;;;;;;;;;;;;;;;;;;2217114;58;1692;-74
2022/04/03 09:28:13;;;;;;;;;;;;;;;;;;2217396;66;1438;-74
2022/04/03 09:30:47;;;;;;;;;;;;;;;;;;2218601;66;1258;-73
2022/04/03 09:33:20;;;;;;;;;;;;;;;;;;2216192;58;1143;-74
2022/04/03 09:35:57;;;;;;;;;;;;;;;;;;2217265;66;1933;-74
2022/04/03 09:38:31;;;;;;;;;;;;;;;;;;2213253;59;2161;-74
2022/04/03 09:41:06;;;;;;;;;;;;;;;;;;2212160;59;1343;-73
2022/04/03 09:43:42;;;;;;;;;;;;;;;;;;2217664;58;1188;-74
2022/04/03 09:46:15;;;;;;;;;;;;;;;;;;2217399;59;2517;-74
2022/04/03 09:48:49;;;;;;;;;;;;;;;;;;2215160;58;2711;-74
2022/04/03 09:51:22;;;;;;;;;;;;;;;;;;2215935;58;1705;-73
2022/04/03 09:53:58;;;;;;;;;;;;;;;;;;2215769;66;1970;-74
2022/04/03 09:56:34;;;;;;;;;;;;;;;;;;2216048;58;1685;-73
2022/04/03 09:59:10;;;;;;;;;;;;;;;;;;2215894;66;1259;-74
2022/04/03 10:01:44;;;;;;;;;;;;;;;;;;2216466;58;1674;-74
2022/04/03 10:04:18;;;;;;;;;;;;;;;;;;2218231;59;1077;-74
2022/04/03 10:06:54;;;;;;;;;;;;;;;;;;2217357;58;1728;-74
2022/04/03 10:09:27;;;;;;;;;;;;;;;;;;2216798;66;1096;-73
2022/04/03 10:12:00;;;;;;;;;;;;;;;;;;2216336;58;1932;-74
2022/04/03 10:14:37;;;;;;;;;;;;;;;;;;2216143;66;1992;-73
2022/04/03 10:17:10;;;;;;;;;;;;;;;;;;2217197;58;1857;-74
2022/04/03 10:19:43;;;;;;;;;;;;;;;;;;2215771;58;1871;-74
2022/04/03 10:22:18;;;;;;;;;;;;;;;;;;2216378;58;1617;-74
2022/04/03 10:24:54;;;;;;;;;;;;;;;;;;2217176;59;1290;-74
2022/04/03 10:27:30;;;;;;;;;;;;;;;;;;2216064;58;1766;-74
2022/04/03 10:30:07;;;;;;;;;;;;;;;;;;2216736;59;1240;-74
2022/04/03 10:32:41;;;;;;;;;;;;;;;;;;2216401;66;1278;-74
2022/04/03 10:35:14;;;;;;;;;;;;;;;;;;2216735;59;1988;-74
2022/04/03 10:37:47;;;;;;;;;;;;;;;;;;2216922;58;1689;-73
2022/04/03 10:40:20;;;;;;;;;;;;;;;;;;2216340;58;1780;-74
2022/04/03 10:42:55;;;;;;;;;;;;;;;;;;2217200;66;1311;-74
2022/04/03 10:45:32;;;;;;;;;;;;;;;;;;2213413;59;1632;-73
2022/04/03 10:48:24;;;;;;;;;;;;;;;;;;2215836;59;2446;-74
2022/04/03 10:50:58;;;;;;;;;;;;;;;;;;2216150;59;1282;-74
2022/04/03 10:53:32;;;;;;;;;;;;;;;;;;2216993;58;1283;-74
2022/04/03 10:56:11;;;;;;;;;;;;;;;;;;2215783;58;1987;-74
2022/04/03 10:58:46;;;;;;;;;;;;;;;;;;2216968;59;1103;-75
2022/04/03 11:01:33;;;;;;;;;;;;;;;;;;2216606;58;1940;-74
2022/04/03 11:04:10;;;;;;;;;;;;;;;;;;2215985;58;1748;-74
2022/04/03 11:06:45;;;;;;;;;;;;;;;;;;2212234;58;1569;-74
2022/04/03 11:09:28;;;;;;;;;;;;;;;;;;2216766;58;2044;-74
2022/04/03 11:12:02;;;;;;;;;;;;;;;;;;2217757;59;1621;-73
2022/04/03 11:14:55;;;;;;;;;;;;;;;;;;2217052;59;1976;-73
2022/04/03 11:17:56;;;;;;;;;;;;;;;;;;2216798;58;1830;-74
2022/04/03 11:20:47;;;;;;;;;;;;;;;;;;2211600;59;2363;-74
2022/04/03 11:23:23;;;;;;;;;;;;;;;;;;2215869;66;1224;-74
2022/04/03 11:25:57;;;;;;;;;;;;;;;;;;2217098;58;1641;-73
2022/04/03 11:28:31;;;;;;;;;;;;;;;;;;2216666;58;1878;-74
2022/04/03 11:31:05;;;;;;;;;;;;;;;;;;2215752;58;1156;-74
2022/04/03 11:33:39;;;;;;;;;;;;;;;;;;2216728;59;1160;-73
2022/04/03 11:36:13;;;;;;;;;;;;;;;;;;2216679;58;1933;-74
2022/04/03 11:38:50;;;;;;;;;;;;;;;;;;2217031;59;1223;-74
2022/04/03 11:41:27;;;;;;;;;;;;;;;;;;2214333;66;1386;-74
2022/04/03 11:44:01;;;;;;;;;;;;;;;;;;2213252;66;2052;-73
2022/04/03 11:46:37;;;;;;;;;;;;;;;;;;2217138;59;1220;-74
2022/04/03 11:49:14;;;;;;;;;;;;;;;;;;2216062;58;2122;-74
2022/04/03 11:51:48;;;;;;;;;;;;;;;;;;2212969;66;1254;-74
2022/04/03 11:54:25;;;;;;;;;;;;;;;;;;2216733;59;2058;-73
2022/04/03 11:57:01;;;;;;;;;;;;;;;;;;2215768;58;1636;-74
2022/04/03 11:59:35;;;;;;;;;;;;;;;;;;2217150;59;1204;-73
2022/04/03 12:02:13;;;;;;;;;;;;;;;;;;2216383;59;1285;-74
2022/04/03 12:04:46;;;;;;;;;;;;;;;;;;2217073;59;1279;-74
2022/04/03 12:07:20;;;;;;;;;;;;;;;;;;2217482;59;1266;-74
2022/04/03 12:09:56;;;;;;;;;;;;;;;;;;2219419;66;1136;-74
2022/04/03 12:12:29;;;;;;;;;;;;;;;;;;2218472;66;1068;-74
2022/04/03 12:15:03;;;;;;;;;;;;;;;;;;2216006;59;1928;-73
2022/04/03 12:17:41;;;;;;;;;;;;;;;;;;2217598;58;1775;-74
2022/04/03 12:20:15;;;;;;;;;;;;;;;;;;2217265;58;1910;-73
2022/04/03 12:22:51;;;;;;;;;;;;;;;;;;2217262;58;1344;-74
2022/04/03 12:25:27;;;;;;;;;;;;;;;;;;2217172;58;1262;-73
2022/04/03 12:28:00;;;;;;;;;;;;;;;;;;2216858;59;1672;-74
2022/04/03 12:30:34;;;;;;;;;;;;;;;;;;2216793;66;1256;-73
2022/04/03 12:33:07;;;;;;;;;;;;;;;;;;2217175;58;1802;-74
2022/04/03 12:35:41;;;;;;;;;;;;;;;;;;2213161;66;1941;-74
2022/04/03 12:38:14;;;;;;;;;;;;;;;;;;2215867;58;1562;-73
2022/04/03 12:40:55;;;;;;;;;;;;;;;;;;2217925;59;1237;-73
2022/04/03 12:43:29;;;;;;;;;;;;;;;;;;2218176;58;1284;-73
2022/04/03 12:46:02;;;;;;;;;;;;;;;;;;2216400;66;1218;-74
2022/04/03 12:48:35;;;;;;;;;;;;;;;;;;2217116;59;2519;-74
2022/04/03 12:51:09;;;;;;;;;;;;;;;;;;2217069;59;2718;-74
2022/04/03 12:53:51;;;;;;;;;;;;;;;;;;2212973;66;1162;-74
2022/04/03 12:58:24;;;;;;;;;;;;;;;;;;2217324;58;1942;-74
2022/04/03 12:59:20;;;;;;;;;;;;;;;;;;2215983;59;1277;-74
2022/04/03 13:01:54;;;;;;;;;;;;;;;;;;2217873;59;1252;-74
2022/04/03 13:04:31;;;;;;;;;;;;;;;;;;2218037;66;1268;-74
2022/04/03 13:07:08;;;;;;;;;;;;;;;;;;2213449;59;2203;-73
2022/04/03 13:09:47;;;;;;;;;;;;;;;;;;2218043;59;1475;-74
2022/04/03 13:12:31;;;;;;;;;;;;;;;;;;2217675;59;1064;-74
2022/04/03 13:15:04;;;;;;;;;;;;;;;;;;2213520;59;1981;-74
2022/04/03 13:17:37;;;;;;;;;;;;;;;;;;2216257;58;1856;-73
2022/04/03 13:20:11;;;;;;;;;;;;;;;;;;2217590;59;1930;-74
2022/04/03 13:22:44;;;;;;;;;;;;;;;;;;2217417;59;1127;-74
2022/04/03 13:25:18;;;;;;;;;;;;;;;;;;2215772;58;1148;-74
2022/04/03 13:27:54;;;;;;;;;;;;;;;;;;2216137;58;2148;-74
2022/04/03 13:30:27;;;;;;;;;;;;;;;;;;2213775;59;1269;-74
2022/04/03 13:33:00;;;;;;;;;;;;;;;;;;2216616;58;1160;-74
2022/04/03 13:35:37;;;;;;;;;;;;;;;;;;2216609;58;2025;-74
2022/04/03 13:38:12;;;;;;;;;;;;;;;;;;2216287;58;1975;-74
2022/04/03 13:40:45;;;;;;;;;;;;;;;;;;2217084;66;1329;-74
2022/04/03 13:43:21;;;;;;;;;;;;;;;;;;2217355;58;1270;-73
2022/04/03 13:46:00;;;;;;;;;;;;;;;;;;2217672;58;1955;-74
2022/04/03 13:48:37;;;;;;;;;;;;;;;;;;2217549;58;1241;-74
2022/04/03 13:51:12;;;;;;;;;;;;;;;;;;2216270;58;2436;-74
2022/04/03 13:53:46;;;;;;;;;;;;;;;;;;2215956;66;1140;-74
2022/04/03 13:56:21;;;;;;;;;;;;;;;;;;2216643;58;1941;-73
2022/04/03 13:58:57;;;;;;;;;;;;;;;;;;2216081;66;1158;-74
2022/04/03 14:01:30;;;;;;;;;;;;;;;;;;2217592;58;1134;-74
2022/04/03 14:04:03;;;;;;;;;;;;;;;;;;2217822;58;2151;-74
2022/04/03 14:06:36;;;;;;;;;;;;;;;;;;2215974;58;1763;-74
2022/04/03 14:09:10;;;;;;;;;;;;;;;;;;2215632;58;1703;-74
2022/04/03 14:11:43;;;;;;;;;;;;;;;;;;2216569;59;1102;-74
2022/04/03 14:14:19;;;;;;;;;;;;;;;;;;2216950;58;1753;-74
2022/04/03 14:16:52;;;;;;;;;;;;;;;;;;2215880;58;2102;-74
2022/04/03 14:19:26;;;;;;;;;;;;;;;;;;2215543;58;2176;-74
2022/04/03 14:21:59;;;;;;;;;;;;;;;;;;2216787;59;1289;-74
2022/04/03 14:24:32;;;;;;;;;;;;;;;;;;2216422;58;1799;-73
2022/04/03 14:27:06;;;;;;;;;;;;;;;;;;2218012;66;1265;-74
2022/04/03 14:29:42;;;;;;;;;;;;;;;;;;2217115;58;1558;-73
2022/04/03 14:32:15;;;;;;;;;;;;;;;;;;2216232;66;1259;-74
2022/04/03 14:34:48;;;;;;;;;;;;;;;;;;2217598;66;1349;-74
2022/04/03 14:37:21;;;;;;;;;;;;;;;;;;2216484;58;1933;-74
2022/04/03 14:39:55;;;;;;;;;;;;;;;;;;2216287;66;1265;-73
2022/04/03 14:42:28;;;;;;;;;;;;;;;;;;2217548;58;1115;-74
2022/04/03 14:45:05;;;;;;;;;;;;;;;;;;2217515;66;1197;-74
2022/04/03 14:47:38;;;;;;;;;;;;;;;;;;2217223;58;2151;-74
2022/04/03 14:50:13;;;;;;;;;;;;;;;;;;2216785;58;2159;-74
2022/04/03 14:52:47;;;;;;;;;;;;;;;;;;2216212;58;2680;-73
2022/04/03 14:55:20;;;;;;;;;;;;;;;;;;2217095;58;2132;-73
2022/04/03 14:57:54;;;;;;;;;;;;;;;;;;2216529;58;1728;-74
2022/04/03 15:00:29;;;;;;;;;;;;;;;;;;2216883;66;1187;-74
2022/04/03 15:03:03;;;;;;;;;;;;;;;;;;2216523;59;1291;-74
2022/04/03 15:05:38;;;;;;;;;;;;;;;;;;2214390;59;1186;-73
2022/04/03 15:08:11;;;;;;;;;;;;;;;;;;2217384;59;1232;-74
2022/04/03 15:10:45;;;;;;;;;;;;;;;;;;2216711;66;1191;-73
2022/04/03 15:13:18;;;;;;;;;;;;;;;;;;2216148;66;1342;-73
2022/04/03 15:15:54;;;;;;;;;;;;;;;;;;2216612;66;1929;-74
2022/04/03 15:18:27;;;;;;;;;;;;;;;;;;2217417;58;1878;-74
2022/04/03 15:21:00;;;;;;;;;;;;;;;;;;2216681;58;1819;-73
2022/04/03 15:23:34;;;;;;;;;;;;;;;;;;2217215;59;1206;-74
2022/04/03 15:26:08;;;;;;;;;;;;;;;;;;2216495;66;1210;-74
2022/04/03 15:28:41;;;;;;;;;;;;;;;;;;2217691;66;1189;-74
2022/04/03 15:31:18;;;;;;;;;;;;;;;;;;2217471;59;1176;-73
2022/04/03 15:33:51;;;;;;;;;;;;;;;;;;2216942;59;1765;-74
2022/04/03 15:36:25;;;;;;;;;;;;;;;;;;2216954;58;1935;-74
2022/04/03 15:39:02;;;;;;;;;;;;;;;;;;2215448;59;1636;-74
2022/04/03 15:41:35;;;;;;;;;;;;;;;;;;2217086;66;1196;-74
2022/04/03 15:44:08;;;;;;;;;;;;;;;;;;2217409;59;1638;-74
2022/04/03 15:46:44;;;;;;;;;;;;;;;;;;2216282;58;1915;-74
2022/04/03 15:49:17;;;;;;;;;;;;;;;;;;2218333;58;1153;-74
2022/04/03 15:51:51;;;;;;;;;;;;;;;;;;2216706;59;2540;-74
2022/04/03 15:54:24;;;;;;;;;;;;;;;;;;2216229;58;2228;-74
2022/04/03 15:56:57;;;;;;;;;;;;;;;;;;2215635;58;1939;-74
2022/04/03 15:59:30;;;;;;;;;;;;;;;;;;2216371;66;1014;-74
2022/04/03 16:02:06;;;;;;;;;;;;;;;;;;2216889;58;2108;-74
2022/04/03 16:04:40;;;;;;;;;;;;;;;;;;2217369;59;1432;-75
2022/04/03 16:07:13;;;;;;;;;;;;;;;;;;2216987;59;1220;-74
2022/04/03 16:09:46;;;;;;;;;;;;;;;;;;2217299;58;1647;-74
2022/04/03 16:12:19;;;;;;;;;;;;;;;;;;2213159;58;2462;-74
2022/04/03 16:14:53;;;;;;;;;;;;;;;;;;2215947;59;2341;-74
2022/04/03 16:17:29;;;;;;;;;;;;;;;;;;2214670;58;1983;-73
2022/04/03 16:20:02;;;;;;;;;;;;;;;;;;2217197;66;2173;-74
2022/04/03 16:22:36;;;;;;;;;;;;;;;;;;2216659;66;1247;-74
2022/04/03 16:25:10;;;;;;;;;;;;;;;;;;2214471;59;1928;-74
2022/04/03 16:27:43;;;;;;;;;;;;;;;;;;2213137;59;2083;-74
2022/04/03 16:30:17;;;;;;;;;;;;;;;;;;2215668;58;1646;-74
2022/04/03 16:32:54;;;;;;;;;;;;;;;;;;2212886;58;2120;-74
2022/04/03 16:35:27;;;;;;;;;;;;;;;;;;2216845;66;1155;-74
2022/04/03 16:38:01;;;;;;;;;;;;;;;;;;2215542;58;1985;-74
2022/04/03 16:40:35;;;;;;;;;;;;;;;;;;2216769;58;2148;-73
2022/04/03 16:43:08;;;;;;;;;;;;;;;;;;2215175;59;2501;-74
2022/04/03 16:45:43;;;;;;;;;;;;;;;;;;2216561;59;1152;-74
2022/04/03 16:48:19;;;;;;;;;;;;;;;;;;2217149;58;1436;-74
2022/04/03 16:50:52;;;;;;;;;;;;;;;;;;2216834;66;1095;-74
2022/04/03 16:53:25;;;;;;;;;;;;;;;;;;2215776;59;2119;-74
2022/04/03 16:55:59;;;;;;;;;;;;;;;;;;2216003;58;2164;-74
2022/04/03 16:58:32;;;;;;;;;;;;;;;;;;2215199;58;1936;-73
2022/04/03 17:01:05;;;;;;;;;;;;;;;;;;2216245;59;1774;-74
2022/04/03 17:03:41;;;;;;;;;;;;;;;;;;2215166;59;1708;-74
2022/04/03 17:06:15;;;;;;;;;;;;;;;;;;2216271;59;1221;-74
2022/04/03 17:08:48;;;;;;;;;;;;;;;;;;2214789;66;1393;-74
2022/04/03 17:11:21;;;;;;;;;;;;;;;;;;2215339;58;1783;-74
2022/04/03 17:13:55;;;;;;;;;;;;;;;;;;2216415;58;2353;-74
2022/04/03 17:16:28;;;;;;;;;;;;;;;;;;2215176;58;1978;-74
2022/04/03 17:19:05;;;;;;;;;;;;;;;;;;2217030;58;1950;-74
2022/04/03 17:21:38;;;;;;;;;;;;;;;;;;2216795;59;1154;-73
2022/04/03 17:24:11;;;;;;;;;;;;;;;;;;2216926;59;1113;-74
2022/04/03 17:26:45;;;;;;;;;;;;;;;;;;2216286;66;1178;-74
2022/04/03 17:29:19;;;;;;;;;;;;;;;;;;2216717;59;1118;-74
2022/04/03 17:31:52;;;;;;;;;;;;;;;;;;2216521;59;1915;-74
2022/04/03 17:34:28;;;;;;;;;;;;;;;;;;2216970;66;1182;-74
2022/04/03 17:37:01;;;;;;;;;;;;;;;;;;2215490;58;1936;-74
2022/04/03 17:39:35;;;;;;;;;;;;;;;;;;2215513;59;1281;-74
2022/04/03 17:42:09;;;;;;;;;;;;;;;;;;2215792;58;2564;-74
2022/04/03 17:44:42;;;;;;;;;;;;;;;;;;2216045;58;2112;-74
2022/04/03 17:47:15;;;;;;;;;;;;;;;;;;2218110;58;1220;-74
2022/04/03 17:49:51;;;;;;;;;;;;;;;;;;2216326;66;1091;-74
2022/04/03 17:52:26;;;;;;;;;;;;;;;;;;2217466;66;1392;-74
2022/04/03 17:54:59;;;;;;;;;;;;;;;;;;2216115;59;2510;-74
2022/04/03 17:57:32;;;;;;;;;;;;;;;;;;2215109;58;2030;-74
2022/04/03 18:00:07;;;;;;;;;;;;;;;;;;2215650;59;1887;-74
2022/04/03 18:02:40;;;;;;;;;;;;;;;;;;2216707;59;1254;-74
2022/04/03 18:05:17;;;;;;;;;;;;;;;;;;2213209;59;1722;-73
2022/04/03 18:07:52;;;;;;;;;;;;;;;;;;2215464;58;1755;-74
2022/04/03 18:10:25;;;;;;;;;;;;;;;;;;2217511;66;1182;-73
2022/04/03 18:12:58;;;;;;;;;;;;;;;;;;2217183;58;1338;-74
2022/04/03 18:15:32;;;;;;;;;;;;;;;;;;2217644;66;1322;-74
2022/04/03 18:18:05;;;;;;;;;;;;;;;;;;2215513;58;2163;-74
2022/04/03 18:20:42;;;;;;;;;;;;;;;;;;2216554;66;1251;-74
2022/04/03 18:23:16;;;;;;;;;;;;;;;;;;2216872;59;1212;-74
2022/04/03 18:25:50;;;;;;;;;;;;;;;;;;2217115;66;1187;-74
2022/04/03 18:28:28;;;;;;;;;;;;;;;;;;2217510;66;1108;-74
2022/04/03 18:31:02;;;;;;;;;;;;;;;;;;2216122;66;1806;-73
2022/04/03 18:33:37;;;;;;;;;;;;;;;;;;2217064;66;1238;-74
2022/04/03 18:38:52;;;;;;;;;;;;;;;;;;2205825;59;2272;-70
2022/04/03 18:41:25;;;;;;;;;;;;;;;;;;2211154;59;1172;-70
2022/04/03 18:43:59;;;;;;;;;;;;;;;;;;2208239;59;2041;-70
2022/04/03 18:46:32;;;;;;;;;;;;;;;;;;2207695;59;2057;-70
2022/04/03 18:49:06;;;;;;;;;;;;;;;;;;2213848;59;1187;-69
2022/04/03 18:51:39;;;;;;;;;;;;;;;;;;2212589;66;1128;-70
2022/04/03 18:54:25;;;;;;;;;;;;;;;;;;2214483;59;2604;-70
2022/04/03 19:00:23;;;;;;;;;;;;;;;;;;2213521;66;1087;-70
2022/04/03 19:05:43;;;;;;;;;;;;;;;;;;2213634;59;2152;-70
2022/04/03 19:08:29;;;;;;;;;;;;;;;;;;2215429;59;1238;-70